sensor_id;sensor_type;location;lat;lon;timestamp;P1;durP1;ratioP1;P2;durP2;ratioP2
71290;SDS011;59073;51.994;4.448;2022-09-09T00:00:13;2.10;;;2.10;;
71290;SDS011;59073;51.994;4.448;2022-09-09T00:02:55;2.45;;;2.45;;
71290;SDS011;59073;51.994;4.448;2022-09-09T00:05:34;2.46;;;2.46;;
71290;SDS011;59073;51.994;4.448;2022-09-09T00:08:36;2.51;;;2.51;;
71290;SDS011;59073;51.994;4.448;2022-09-09T00:11:22;2.37;;;2.37;;
71290;SDS011;59073;51.994;4.448;2022-09-09T00:13:59;2.44;;;2.44;;
71290;SDS011;59073;51.994;4.448;2022-09-09T00:16:34;2.50;;;2.50;;
71290;SDS011;59073;51.994;4.448;2022-09-09T00:19:14;2.64;;;2.64;;
71290;SDS011;59073;51.994;4.448;2022-09-09T00:24:48;2.54;;;2.54;;
71290;SDS011;59073;51.994;4.448;2022-09-09T00:30:19;2.83;;;2.83;;
71290;SDS011;59073;51.994;4.448;2022-09-09T00:32:55;2.82;;;2.82;;
71290;SDS011;59073;51.994;4.448;2022-09-09T00:35:35;2.75;;;2.75;;
71290;SDS011;59073;51.994;4.448;2022-09-09T00:44:35;2.83;;;2.83;;
71290;SDS011;59073;51.994;4.448;2022-09-09T00:47:12;3.37;;;3.37;;
71290;SDS011;59073;51.994;4.448;2022-09-09T00:50:23;3.28;;;3.28;;
71290;SDS011;59073;51.994;4.448;2022-09-09T00:55:49;3.41;;;3.41;;
71290;SDS011;59073;51.994;4.448;2022-09-09T00:58:22;3.12;;;3.12;;
71290;SDS011;59073;51.994;4.448;2022-09-09T01:00:52;2.96;;;2.96;;
71290;SDS011;59073;51.994;4.448;2022-09-09T01:03:35;3.18;;;3.18;;
71290;SDS011;59073;51.994;4.448;2022-09-09T01:06:31;2.99;;;2.99;;
71290;SDS011;59073;51.994;4.448;2022-09-09T01:09:21;2.83;;;2.83;;
71290;SDS011;59073;51.994;4.448;2022-09-09T01:12:15;2.79;;;2.79;;
71290;SDS011;59073;51.994;4.448;2022-09-09T01:14:43;2.61;;;2.61;;
71290;SDS011;59073;51.994;4.448;2022-09-09T01:17:34;2.38;;;2.38;;
71290;SDS011;59073;51.994;4.448;2022-09-09T01:32:47;1.15;;;1.15;;
71290;SDS011;59073;51.994;4.448;2022-09-09T01:37:54;1.28;;;1.27;;
71290;SDS011;59073;51.994;4.448;2022-09-09T01:40:26;1.08;;;1.07;;
71290;SDS011;59073;51.994;4.448;2022-09-09T01:42:52;1.31;;;1.29;;
71290;SDS011;59073;51.994;4.448;2022-09-09T01:45:19;1.08;;;1.06;;
71290;SDS011;59073;51.994;4.448;2022-09-09T01:47:49;1.09;;;1.06;;
71290;SDS011;59073;51.994;4.448;2022-09-09T01:50:34;1.08;;;1.05;;
71290;SDS011;59073;51.994;4.448;2022-09-09T01:53:00;0.97;;;0.94;;
71290;SDS011;59073;51.994;4.448;2022-09-09T01:55:36;1.13;;;1.09;;
71290;SDS011;59073;51.994;4.448;2022-09-09T02:07:02;1.45;;;1.41;;
71290;SDS011;59073;51.994;4.448;2022-09-09T02:09:47;1.61;;;1.56;;
71290;SDS011;59073;51.994;4.448;2022-09-09T02:15:48;1.38;;;1.35;;
71290;SDS011;59073;51.994;4.448;2022-09-09T02:21:20;1.39;;;1.38;;
71290;SDS011;59073;51.994;4.448;2022-09-09T02:23:54;1.27;;;1.25;;
71290;SDS011;59073;51.994;4.448;2022-09-09T02:27:01;1.22;;;1.19;;
71290;SDS011;59073;51.994;4.448;2022-09-09T02:29:57;1.07;;;1.04;;
71290;SDS011;59073;51.994;4.448;2022-09-09T02:32:50;1.33;;;1.29;;
71290;SDS011;59073;51.994;4.448;2022-09-09T02:43:00;1.40;;;1.34;;
71290;SDS011;59073;51.994;4.448;2022-09-09T02:46:02;1.30;;;1.24;;
71290;SDS011;59073;51.994;4.448;2022-09-09T02:58:50;2.05;;;1.97;;
71290;SDS011;59073;51.994;4.448;2022-09-09T03:01:28;2.03;;;1.95;;
71290;SDS011;59073;51.994;4.448;2022-09-09T03:04:28;1.87;;;1.79;;
71290;SDS011;59073;51.994;4.448;2022-09-09T03:14:40;1.46;;;1.42;;
71290;SDS011;59073;51.994;4.448;2022-09-09T03:17:26;1.39;;;1.38;;
71290;SDS011;59073;51.994;4.448;2022-09-09T03:20:25;1.55;;;1.54;;
71290;SDS011;59073;51.994;4.448;2022-09-09T03:23:05;1.44;;;1.44;;
71290;SDS011;59073;51.994;4.448;2022-09-09T03:25:38;1.49;;;1.48;;
71290;SDS011;59073;51.994;4.448;2022-09-09T03:35:08;1.23;;;1.21;;
71290;SDS011;59073;51.994;4.448;2022-09-09T03:37:57;1.09;;;1.05;;
71290;SDS011;59073;51.994;4.448;2022-09-09T03:40:55;1.32;;;1.27;;
71290;SDS011;59073;51.994;4.448;2022-09-09T03:46:58;1.32;;;1.25;;
71290;SDS011;59073;51.994;4.448;2022-09-09T04:04:04;1.05;;;0.96;;
71290;SDS011;59073;51.994;4.448;2022-09-09T04:06:37;1.24;;;1.12;;
71290;SDS011;59073;51.994;4.448;2022-09-09T04:16:42;1.21;;;1.13;;
71290;SDS011;59073;51.994;4.448;2022-09-09T04:19:51;1.43;;;1.34;;
71290;SDS011;59073;51.994;4.448;2022-09-09T04:32:22;2.02;;;1.90;;
71290;SDS011;59073;51.994;4.448;2022-09-09T04:38:22;1.82;;;1.73;;
71290;SDS011;59073;51.994;4.448;2022-09-09T04:40:59;1.92;;;1.81;;
71290;SDS011;59073;51.994;4.448;2022-09-09T04:43:45;1.98;;;1.87;;
71290;SDS011;59073;51.994;4.448;2022-09-09T05:07:51;1.65;;;1.62;;
71290;SDS011;59073;51.994;4.448;2022-09-09T05:13:55;1.60;;;1.57;;
71290;SDS011;59073;51.994;4.448;2022-09-09T05:16:21;1.54;;;1.51;;
71290;SDS011;59073;51.994;4.448;2022-09-09T05:18:50;1.67;;;1.63;;
71290;SDS011;59073;51.994;4.448;2022-09-09T05:32:07;1.47;;;1.43;;
71290;SDS011;59073;51.994;4.448;2022-09-09T05:37:48;1.46;;;1.43;;
71290;SDS011;59073;51.994;4.448;2022-09-09T05:40:14;1.38;;;1.38;;
71290;SDS011;59073;51.994;4.448;2022-09-09T05:42:42;1.95;;;1.90;;
71290;SDS011;59073;51.994;4.448;2022-09-09T05:45:26;1.89;;;1.80;;
71290;SDS011;59073;51.994;4.448;2022-09-09T05:48:01;1.68;;;1.58;;
71290;SDS011;59073;51.994;4.448;2022-09-09T05:50:33;1.71;;;1.61;;
71290;SDS011;59073;51.994;4.448;2022-09-09T05:53:10;1.41;;;1.34;;
71290;SDS011;59073;51.994;4.448;2022-09-09T05:55:39;1.42;;;1.35;;
71290;SDS011;59073;51.994;4.448;2022-09-09T05:58:04;1.44;;;1.35;;
71290;SDS011;59073;51.994;4.448;2022-09-09T06:00:39;1.40;;;1.27;;
71290;SDS011;59073;51.994;4.448;2022-09-09T06:05:58;1.50;;;1.39;;
71290;SDS011;59073;51.994;4.448;2022-09-09T06:08:35;1.37;;;1.26;;
71290;SDS011;59073;51.994;4.448;2022-09-09T06:11:30;1.80;;;1.65;;
71290;SDS011;59073;51.994;4.448;2022-09-09T06:14:05;1.86;;;1.66;;
71290;SDS011;59073;51.994;4.448;2022-09-09T06:16:52;1.63;;;1.48;;
71290;SDS011;59073;51.994;4.448;2022-09-09T06:19:21;1.83;;;1.67;;
71290;SDS011;59073;51.994;4.448;2022-09-09T06:21:46;1.64;;;1.52;;
71290;SDS011;59073;51.994;4.448;2022-09-09T06:24:15;1.71;;;1.58;;
71290;SDS011;59073;51.994;4.448;2022-09-09T06:26:42;1.72;;;1.59;;
71290;SDS011;59073;51.994;4.448;2022-09-09T06:29:08;1.70;;;1.58;;
71290;SDS011;59073;51.994;4.448;2022-09-09T06:31:37;1.72;;;1.58;;
71290;SDS011;59073;51.994;4.448;2022-09-09T06:34:21;1.78;;;1.63;;
71290;SDS011;59073;51.994;4.448;2022-09-09T06:36:55;1.73;;;1.59;;
71290;SDS011;59073;51.994;4.448;2022-09-09T06:39:46;1.65;;;1.49;;
71290;SDS011;59073;51.994;4.448;2022-09-09T06:42:13;1.97;;;1.75;;
71290;SDS011;59073;51.994;4.448;2022-09-09T06:44:38;1.64;;;1.48;;
71290;SDS011;59073;51.994;4.448;2022-09-09T06:47:06;1.82;;;1.64;;
71290;SDS011;59073;51.994;4.448;2022-09-09T06:49:31;1.99;;;1.85;;
71290;SDS011;59073;51.994;4.448;2022-09-09T06:51:57;1.97;;;1.84;;
71290;SDS011;59073;51.994;4.448;2022-09-09T06:54:22;1.80;;;1.71;;
71290;SDS011;59073;51.994;4.448;2022-09-09T06:56:50;1.56;;;1.50;;
71290;SDS011;59073;51.994;4.448;2022-09-09T06:59:27;1.50;;;1.45;;
71290;SDS011;59073;51.994;4.448;2022-09-09T07:01:53;1.57;;;1.51;;
71290;SDS011;59073;51.994;4.448;2022-09-09T07:04:28;1.81;;;1.75;;
71290;SDS011;59073;51.994;4.448;2022-09-09T07:07:00;2.10;;;2.02;;
71290;SDS011;59073;51.994;4.448;2022-09-09T07:09:26;1.82;;;1.74;;
71290;SDS011;59073;51.994;4.448;2022-09-09T07:11:57;1.78;;;1.77;;
71290;SDS011;59073;51.994;4.448;2022-09-09T07:14:32;1.93;;;1.93;;
71290;SDS011;59073;51.994;4.448;2022-09-09T07:16:59;1.54;;;1.54;;
71290;SDS011;59073;51.994;4.448;2022-09-09T07:19:25;1.75;;;1.75;;
71290;SDS011;59073;51.994;4.448;2022-09-09T07:21:57;1.57;;;1.57;;
71290;SDS011;59073;51.994;4.448;2022-09-09T07:24:40;1.64;;;1.64;;
71290;SDS011;59073;51.994;4.448;2022-09-09T07:27:05;1.68;;;1.68;;
71290;SDS011;59073;51.994;4.448;2022-09-09T07:29:30;1.79;;;1.79;;
71290;SDS011;59073;51.994;4.448;2022-09-09T07:31:56;1.90;;;1.90;;
71290;SDS011;59073;51.994;4.448;2022-09-09T07:34:22;2.02;;;2.02;;
71290;SDS011;59073;51.994;4.448;2022-09-09T07:36:47;1.90;;;1.90;;
71290;SDS011;59073;51.994;4.448;2022-09-09T07:39:13;2.04;;;2.04;;
71290;SDS011;59073;51.994;4.448;2022-09-09T07:41:41;1.96;;;1.96;;
71290;SDS011;59073;51.994;4.448;2022-09-09T07:44:10;1.88;;;1.88;;
71290;SDS011;59073;51.994;4.448;2022-09-09T07:46:40;1.92;;;1.92;;
71290;SDS011;59073;51.994;4.448;2022-09-09T07:49:06;1.98;;;1.98;;
71290;SDS011;59073;51.994;4.448;2022-09-09T07:51:34;1.99;;;1.99;;
71290;SDS011;59073;51.994;4.448;2022-09-09T07:54:03;1.72;;;1.69;;
71290;SDS011;59073;51.994;4.448;2022-09-09T07:56:43;1.73;;;1.69;;
71290;SDS011;59073;51.994;4.448;2022-09-09T07:59:12;1.76;;;1.69;;
71290;SDS011;59073;51.994;4.448;2022-09-09T08:01:48;1.85;;;1.75;;
71290;SDS011;59073;51.994;4.448;2022-09-09T08:04:19;1.96;;;1.86;;
71290;SDS011;59073;51.994;4.448;2022-09-09T08:06:52;1.36;;;1.33;;
71290;SDS011;59073;51.994;4.448;2022-09-09T08:09:22;2.05;;;1.90;;
71290;SDS011;59073;51.994;4.448;2022-09-09T08:11:52;1.87;;;1.73;;
71290;SDS011;59073;51.994;4.448;2022-09-09T08:14:18;1.65;;;1.62;;
71290;SDS011;59073;51.994;4.448;2022-09-09T08:16:47;1.83;;;1.78;;
71290;SDS011;59073;51.994;4.448;2022-09-09T08:19:32;1.80;;;1.69;;
71290;SDS011;59073;51.994;4.448;2022-09-09T08:22:03;1.79;;;1.67;;
71290;SDS011;59073;51.994;4.448;2022-09-09T08:24:29;1.69;;;1.56;;
71290;SDS011;59073;51.994;4.448;2022-09-09T08:30:07;1.85;;;1.72;;
71290;SDS011;59073;51.994;4.448;2022-09-09T08:32:48;1.81;;;1.69;;
71290;SDS011;59073;51.994;4.448;2022-09-09T08:35:22;2.01;;;1.88;;
71290;SDS011;59073;51.994;4.448;2022-09-09T08:37:48;1.74;;;1.61;;
71290;SDS011;59073;51.994;4.448;2022-09-09T08:40:18;1.60;;;1.58;;
71290;SDS011;59073;51.994;4.448;2022-09-09T08:43:02;1.34;;;1.34;;
71290;SDS011;59073;51.994;4.448;2022-09-09T08:45:34;1.58;;;1.58;;
71290;SDS011;59073;51.994;4.448;2022-09-09T08:48:41;1.43;;;1.43;;
71290;SDS011;59073;51.994;4.448;2022-09-09T08:51:21;1.58;;;1.57;;
71290;SDS011;59073;51.994;4.448;2022-09-09T08:53:52;1.61;;;1.61;;
71290;SDS011;59073;51.994;4.448;2022-09-09T08:56:23;1.69;;;1.69;;
71290;SDS011;59073;51.994;4.448;2022-09-09T08:58:53;1.52;;;1.52;;
71290;SDS011;59073;51.994;4.448;2022-09-09T09:07:38;1.96;;;1.86;;
71290;SDS011;59073;51.994;4.448;2022-09-09T09:10:21;1.81;;;1.81;;
71290;SDS011;59073;51.994;4.448;2022-09-09T09:13:13;1.79;;;1.74;;
71290;SDS011;59073;51.994;4.448;2022-09-09T09:15:54;2.05;;;1.92;;
71290;SDS011;59073;51.994;4.448;2022-09-09T09:18:32;1.72;;;1.60;;
71290;SDS011;59073;51.994;4.448;2022-09-09T09:21:17;1.79;;;1.64;;
71290;SDS011;59073;51.994;4.448;2022-09-09T09:24:02;1.76;;;1.64;;
71290;SDS011;59073;51.994;4.448;2022-09-09T09:26:46;1.80;;;1.70;;
71290;SDS011;59073;51.994;4.448;2022-09-09T09:29:27;1.60;;;1.55;;
71290;SDS011;59073;51.994;4.448;2022-09-09T09:31:55;1.40;;;1.40;;
71290;SDS011;59073;51.994;4.448;2022-09-09T09:34:29;1.61;;;1.61;;
71290;SDS011;59073;51.994;4.448;2022-09-09T09:36:57;1.59;;;1.59;;
71290;SDS011;59073;51.994;4.448;2022-09-09T09:39:37;1.70;;;1.62;;
71290;SDS011;59073;51.994;4.448;2022-09-09T09:42:46;1.72;;;1.59;;
71290;SDS011;59073;51.994;4.448;2022-09-09T09:48:12;1.74;;;1.63;;
71290;SDS011;59073;51.994;4.448;2022-09-09T09:50:51;1.81;;;1.71;;
71290;SDS011;59073;51.994;4.448;2022-09-09T09:56:13;1.57;;;1.51;;
71290;SDS011;59073;51.994;4.448;2022-09-09T09:59:02;1.83;;;1.81;;
71290;SDS011;59073;51.994;4.448;2022-09-09T10:01:28;1.30;;;1.30;;
71290;SDS011;59073;51.994;4.448;2022-09-09T10:09:54;1.78;;;1.78;;
71290;SDS011;59073;51.994;4.448;2022-09-09T10:12:25;1.87;;;1.87;;
71290;SDS011;59073;51.994;4.448;2022-09-09T10:22:55;1.60;;;1.60;;
71290;SDS011;59073;51.994;4.448;2022-09-09T10:25:55;1.61;;;1.61;;
71290;SDS011;59073;51.994;4.448;2022-09-09T10:44:15;1.56;;;1.52;;
71290;SDS011;59073;51.994;4.448;2022-09-09T10:57:58;1.75;;;1.60;;
71290;SDS011;59073;51.994;4.448;2022-09-09T11:38:47;1.23;;;1.23;;
71290;SDS011;59073;51.994;4.448;2022-09-09T11:41:49;1.18;;;1.18;;
71290;SDS011;59073;51.994;4.448;2022-09-09T11:47:41;1.20;;;1.20;;
71290;SDS011;59073;51.994;4.448;2022-09-09T11:58:57;1.34;;;1.34;;
71290;SDS011;59073;51.994;4.448;2022-09-09T12:11:06;1.58;;;1.58;;
71290;SDS011;59073;51.994;4.448;2022-09-09T12:13:51;1.57;;;1.57;;
71290;SDS011;59073;51.994;4.448;2022-09-09T12:19:36;1.75;;;1.75;;
71290;SDS011;59073;51.994;4.448;2022-09-09T12:22:07;1.28;;;1.28;;
71290;SDS011;59073;51.994;4.448;2022-09-09T12:40:18;1.43;;;1.43;;
71290;SDS011;59073;51.994;4.448;2022-09-09T12:42:47;1.51;;;1.51;;
71290;SDS011;59073;51.994;4.448;2022-09-09T12:59:50;1.40;;;1.40;;
71290;SDS011;59073;51.994;4.448;2022-09-09T13:09:27;1.25;;;1.25;;
71290;SDS011;59073;51.994;4.448;2022-09-09T13:11:59;0.93;;;0.93;;
71290;SDS011;59073;51.994;4.448;2022-09-09T13:14:28;0.92;;;0.92;;
71290;SDS011;59073;51.994;4.448;2022-09-09T13:17:00;1.05;;;1.05;;
71290;SDS011;59073;51.994;4.448;2022-09-09T13:19:43;0.84;;;0.84;;
71290;SDS011;59073;51.994;4.448;2022-09-09T13:27:39;0.66;;;0.66;;
71290;SDS011;59073;51.994;4.448;2022-09-09T13:30:19;0.70;;;0.70;;
71290;SDS011;59073;51.994;4.448;2022-09-09T13:35:56;0.76;;;0.76;;
71290;SDS011;59073;51.994;4.448;2022-09-09T13:39:02;0.73;;;0.73;;
71290;SDS011;59073;51.994;4.448;2022-09-09T13:41:55;0.94;;;0.94;;
71290;SDS011;59073;51.994;4.448;2022-09-09T13:48:11;0.73;;;0.73;;
71290;SDS011;59073;51.994;4.448;2022-09-09T13:54:11;0.70;;;0.67;;
71290;SDS011;59073;51.994;4.448;2022-09-09T14:03:50;0.80;;;0.75;;
71290;SDS011;59073;51.994;4.448;2022-09-09T14:27:05;1.10;;;0.96;;
71290;SDS011;59073;51.994;4.448;2022-09-09T15:12:09;1.03;;;0.84;;
71290;SDS011;59073;51.994;4.448;2022-09-09T15:18:02;1.40;;;1.11;;
71290;SDS011;59073;51.994;4.448;2022-09-09T15:20:27;1.14;;;0.90;;
71290;SDS011;59073;51.994;4.448;2022-09-09T15:23:11;0.92;;;0.75;;
71290;SDS011;59073;51.994;4.448;2022-09-09T15:38:45;1.22;;;1.08;;
71290;SDS011;59073;51.994;4.448;2022-09-09T15:41:39;1.22;;;1.09;;
71290;SDS011;59073;51.994;4.448;2022-09-09T15:47:41;1.24;;;1.22;;
71290;SDS011;59073;51.994;4.448;2022-09-09T15:53:39;1.67;;;1.65;;
71290;SDS011;59073;51.994;4.448;2022-09-09T15:56:13;1.69;;;1.69;;
71290;SDS011;59073;51.994;4.448;2022-09-09T16:05:36;2.10;;;2.10;;
71290;SDS011;59073;51.994;4.448;2022-09-09T16:14:43;2.31;;;2.31;;
71290;SDS011;59073;51.994;4.448;2022-09-09T16:17:10;2.17;;;2.17;;
71290;SDS011;59073;51.994;4.448;2022-09-09T16:19:45;2.18;;;2.18;;
71290;SDS011;59073;51.994;4.448;2022-09-09T16:23:12;2.56;;;2.56;;
71290;SDS011;59073;51.994;4.448;2022-09-09T16:25:52;2.78;;;2.78;;
71290;SDS011;59073;51.994;4.448;2022-09-09T16:28:21;2.51;;;2.51;;
71290;SDS011;59073;51.994;4.448;2022-09-09T16:30:46;2.59;;;2.59;;
71290;SDS011;59073;51.994;4.448;2022-09-09T16:36:22;2.08;;;2.08;;
71290;SDS011;59073;51.994;4.448;2022-09-09T16:39:39;2.03;;;2.03;;
71290;SDS011;59073;51.994;4.448;2022-09-09T16:42:21;1.80;;;1.80;;
71290;SDS011;59073;51.994;4.448;2022-09-09T16:44:52;1.50;;;1.50;;
71290;SDS011;59073;51.994;4.448;2022-09-09T16:47:18;1.37;;;1.37;;
71290;SDS011;59073;51.994;4.448;2022-09-09T16:49:46;1.40;;;1.40;;
71290;SDS011;59073;51.994;4.448;2022-09-09T16:52:21;1.16;;;1.16;;
71290;SDS011;59073;51.994;4.448;2022-09-09T16:54:58;1.51;;;1.51;;
71290;SDS011;59073;51.994;4.448;2022-09-09T17:12:07;1.50;;;1.50;;
71290;SDS011;59073;51.994;4.448;2022-09-09T17:18:05;1.45;;;1.45;;
71290;SDS011;59073;51.994;4.448;2022-09-09T17:24:25;1.65;;;1.65;;
71290;SDS011;59073;51.994;4.448;2022-09-09T17:26:54;1.78;;;1.78;;
71290;SDS011;59073;51.994;4.448;2022-09-09T17:29:49;1.55;;;1.55;;
71290;SDS011;59073;51.994;4.448;2022-09-09T17:32:17;1.63;;;1.63;;
71290;SDS011;59073;51.994;4.448;2022-09-09T17:34:51;1.42;;;1.42;;
71290;SDS011;59073;51.994;4.448;2022-09-09T17:37:18;1.44;;;1.44;;
71290;SDS011;59073;51.994;4.448;2022-09-09T17:39:43;1.66;;;1.66;;
71290;SDS011;59073;51.994;4.448;2022-09-09T17:42:11;1.33;;;1.33;;
71290;SDS011;59073;51.994;4.448;2022-09-09T17:44:37;1.38;;;1.38;;
71290;SDS011;59073;51.994;4.448;2022-09-09T17:47:04;1.22;;;1.22;;
71290;SDS011;59073;51.994;4.448;2022-09-09T17:49:56;1.23;;;1.23;;
71290;SDS011;59073;51.994;4.448;2022-09-09T17:52:22;1.18;;;1.18;;
71290;SDS011;59073;51.994;4.448;2022-09-09T17:54:50;1.15;;;1.15;;
71290;SDS011;59073;51.994;4.448;2022-09-09T17:57:15;1.31;;;1.31;;
71290;SDS011;59073;51.994;4.448;2022-09-09T17:59:44;1.35;;;1.35;;
71290;SDS011;59073;51.994;4.448;2022-09-09T18:15:35;1.12;;;1.07;;
71290;SDS011;59073;51.994;4.448;2022-09-09T18:18:47;0.97;;;0.93;;
71290;SDS011;59073;51.994;4.448;2022-09-09T18:21:17;0.71;;;0.68;;
71290;SDS011;59073;51.994;4.448;2022-09-09T18:24:15;0.82;;;0.81;;
71290;SDS011;59073;51.994;4.448;2022-09-09T18:47:41;1.14;;;1.10;;
71290;SDS011;59073;51.994;4.448;2022-09-09T18:53:23;1.35;;;1.29;;
71290;SDS011;59073;51.994;4.448;2022-09-09T18:55:56;1.30;;;1.25;;
71290;SDS011;59073;51.994;4.448;2022-09-09T18:58:26;1.28;;;1.22;;
71290;SDS011;59073;51.994;4.448;2022-09-09T19:01:00;1.16;;;1.12;;
71290;SDS011;59073;51.994;4.448;2022-09-09T19:03:37;1.39;;;1.35;;
71290;SDS011;59073;51.994;4.448;2022-09-09T19:16:18;1.74;;;1.69;;
71290;SDS011;59073;51.994;4.448;2022-09-09T20:09:37;1.23;;;1.16;;
71290;SDS011;59073;51.994;4.448;2022-09-09T20:12:03;1.45;;;1.37;;
71290;SDS011;59073;51.994;4.448;2022-09-09T20:14:29;1.38;;;1.31;;
71290;SDS011;59073;51.994;4.448;2022-09-09T20:16:54;1.24;;;1.20;;
71290;SDS011;59073;51.994;4.448;2022-09-09T20:19:20;1.57;;;1.56;;
71290;SDS011;59073;51.994;4.448;2022-09-09T20:21:46;1.30;;;1.30;;
71290;SDS011;59073;51.994;4.448;2022-09-09T20:24:14;1.44;;;1.44;;
71290;SDS011;59073;51.994;4.448;2022-09-09T20:26:42;1.31;;;1.30;;
71290;SDS011;59073;51.994;4.448;2022-09-09T20:29:10;1.24;;;1.24;;
71290;SDS011;59073;51.994;4.448;2022-09-09T20:31:37;1.25;;;1.25;;
71290;SDS011;59073;51.994;4.448;2022-09-09T20:34:05;1.20;;;1.20;;
71290;SDS011;59073;51.994;4.448;2022-09-09T20:36:34;1.25;;;1.25;;
71290;SDS011;59073;51.994;4.448;2022-09-09T20:39:05;1.38;;;1.38;;
71290;SDS011;59073;51.994;4.448;2022-09-09T20:41:41;1.47;;;1.47;;
71290;SDS011;59073;51.994;4.448;2022-09-09T20:44:19;1.36;;;1.36;;
71290;SDS011;59073;51.994;4.448;2022-09-09T20:46:47;1.38;;;1.38;;
71290;SDS011;59073;51.994;4.448;2022-09-09T20:49:17;1.36;;;1.36;;
71290;SDS011;59073;51.994;4.448;2022-09-09T20:51:46;1.59;;;1.59;;
71290;SDS011;59073;51.994;4.448;2022-09-09T20:54:15;1.33;;;1.33;;
71290;SDS011;59073;51.994;4.448;2022-09-09T20:56:44;1.27;;;1.27;;
71290;SDS011;59073;51.994;4.448;2022-09-09T20:59:12;1.71;;;1.71;;
71290;SDS011;59073;51.994;4.448;2022-09-09T21:01:39;1.56;;;1.56;;
71290;SDS011;59073;51.994;4.448;2022-09-09T21:04:06;1.62;;;1.62;;
71290;SDS011;59073;51.994;4.448;2022-09-09T21:06:33;1.76;;;1.76;;
71290;SDS011;59073;51.994;4.448;2022-09-09T21:08:59;1.67;;;1.67;;
71290;SDS011;59073;51.994;4.448;2022-09-09T21:11:24;2.00;;;2.00;;
71290;SDS011;59073;51.994;4.448;2022-09-09T21:13:50;1.85;;;1.85;;
71290;SDS011;59073;51.994;4.448;2022-09-09T21:16:16;1.79;;;1.79;;
71290;SDS011;59073;51.994;4.448;2022-09-09T21:18:46;2.03;;;2.03;;
71290;SDS011;59073;51.994;4.448;2022-09-09T21:21:13;1.77;;;1.77;;
71290;SDS011;59073;51.994;4.448;2022-09-09T21:23:39;1.85;;;1.85;;
71290;SDS011;59073;51.994;4.448;2022-09-09T21:26:06;1.44;;;1.44;;
71290;SDS011;59073;51.994;4.448;2022-09-09T21:28:33;1.48;;;1.48;;
71290;SDS011;59073;51.994;4.448;2022-09-09T21:31:00;1.46;;;1.46;;
71290;SDS011;59073;51.994;4.448;2022-09-09T21:33:26;1.52;;;1.52;;
71290;SDS011;59073;51.994;4.448;2022-09-09T21:35:53;1.30;;;1.30;;
71290;SDS011;59073;51.994;4.448;2022-09-09T21:38:22;1.33;;;1.33;;
71290;SDS011;59073;51.994;4.448;2022-09-09T21:40:48;1.35;;;1.35;;
71290;SDS011;59073;51.994;4.448;2022-09-09T21:43:15;1.32;;;1.32;;
71290;SDS011;59073;51.994;4.448;2022-09-09T21:45:41;1.21;;;1.21;;
71290;SDS011;59073;51.994;4.448;2022-09-09T21:48:09;1.32;;;1.32;;
71290;SDS011;59073;51.994;4.448;2022-09-09T21:50:43;1.21;;;1.21;;
71290;SDS011;59073;51.994;4.448;2022-09-09T21:53:11;1.21;;;1.21;;
71290;SDS011;59073;51.994;4.448;2022-09-09T21:55:40;1.53;;;1.52;;
71290;SDS011;59073;51.994;4.448;2022-09-09T21:58:08;1.37;;;1.34;;
71290;SDS011;59073;51.994;4.448;2022-09-09T22:00:35;1.36;;;1.35;;
71290;SDS011;59073;51.994;4.448;2022-09-09T22:03:06;1.21;;;1.21;;
71290;SDS011;59073;51.994;4.448;2022-09-09T22:05:33;1.51;;;1.51;;
71290;SDS011;59073;51.994;4.448;2022-09-09T22:07:58;1.78;;;1.78;;
71290;SDS011;59073;51.994;4.448;2022-09-09T22:10:24;1.67;;;1.67;;
71290;SDS011;59073;51.994;4.448;2022-09-09T22:12:52;1.87;;;1.87;;
71290;SDS011;59073;51.994;4.448;2022-09-09T22:15:18;1.95;;;1.95;;
71290;SDS011;59073;51.994;4.448;2022-09-09T22:17:43;1.58;;;1.58;;
71290;SDS011;59073;51.994;4.448;2022-09-09T22:20:10;1.61;;;1.61;;
71290;SDS011;59073;51.994;4.448;2022-09-09T22:22:36;1.66;;;1.66;;
71290;SDS011;59073;51.994;4.448;2022-09-09T22:25:02;1.75;;;1.75;;
71290;SDS011;59073;51.994;4.448;2022-09-09T22:27:28;1.51;;;1.51;;
71290;SDS011;59073;51.994;4.448;2022-09-09T22:29:53;1.67;;;1.66;;
71290;SDS011;59073;51.994;4.448;2022-09-09T22:32:19;1.95;;;1.95;;
71290;SDS011;59073;51.994;4.448;2022-09-09T22:34:44;1.61;;;1.61;;
71290;SDS011;59073;51.994;4.448;2022-09-09T22:37:11;1.21;;;1.21;;
71290;SDS011;59073;51.994;4.448;2022-09-09T22:39:36;1.45;;;1.43;;
71290;SDS011;59073;51.994;4.448;2022-09-09T22:42:02;1.56;;;1.55;;
71290;SDS011;59073;51.994;4.448;2022-09-09T22:44:29;1.32;;;1.32;;
71290;SDS011;59073;51.994;4.448;2022-09-09T22:46:55;1.10;;;1.10;;
71290;SDS011;59073;51.994;4.448;2022-09-09T22:49:21;1.24;;;1.24;;
71290;SDS011;59073;51.994;4.448;2022-09-09T22:51:47;1.17;;;1.14;;
71290;SDS011;59073;51.994;4.448;2022-09-09T22:54:13;1.29;;;1.26;;
71290;SDS011;59073;51.994;4.448;2022-09-09T22:56:39;1.30;;;1.26;;
71290;SDS011;59073;51.994;4.448;2022-09-09T22:59:05;1.44;;;1.41;;
71290;SDS011;59073;51.994;4.448;2022-09-09T23:01:31;1.14;;;1.13;;
71290;SDS011;59073;51.994;4.448;2022-09-09T23:03:57;1.22;;;1.22;;
71290;SDS011;59073;51.994;4.448;2022-09-09T23:06:24;1.34;;;1.34;;
71290;SDS011;59073;51.994;4.448;2022-09-09T23:08:52;1.18;;;1.18;;
71290;SDS011;59073;51.994;4.448;2022-09-09T23:11:20;1.19;;;1.19;;
71290;SDS011;59073;51.994;4.448;2022-09-09T23:13:50;1.01;;;1.01;;
71290;SDS011;59073;51.994;4.448;2022-09-09T23:16:22;1.11;;;1.11;;
71290;SDS011;59073;51.994;4.448;2022-09-09T23:19:12;1.02;;;1.02;;
71290;SDS011;59073;51.994;4.448;2022-09-09T23:21:41;1.05;;;1.05;;
71290;SDS011;59073;51.994;4.448;2022-09-09T23:24:09;0.99;;;0.99;;
71290;SDS011;59073;51.994;4.448;2022-09-09T23:26:37;1.09;;;1.09;;
71290;SDS011;59073;51.994;4.448;2022-09-09T23:29:03;1.31;;;1.31;;
71290;SDS011;59073;51.994;4.448;2022-09-09T23:31:31;1.37;;;1.37;;
71290;SDS011;59073;51.994;4.448;2022-09-09T23:34:01;1.06;;;1.05;;
71290;SDS011;59073;51.994;4.448;2022-09-09T23:36:28;1.08;;;1.08;;
71290;SDS011;59073;51.994;4.448;2022-09-09T23:38:58;1.00;;;1.00;;
71290;SDS011;59073;51.994;4.448;2022-09-09T23:41:27;0.85;;;0.85;;
71290;SDS011;59073;51.994;4.448;2022-09-09T23:43:53;0.95;;;0.95;;
71290;SDS011;59073;51.994;4.448;2022-09-09T23:46:23;0.97;;;0.97;;
71290;SDS011;59073;51.994;4.448;2022-09-09T23:48:53;1.20;;;1.20;;
71290;SDS011;59073;51.994;4.448;2022-09-09T23:51:21;1.12;;;1.12;;
71290;SDS011;59073;51.994;4.448;2022-09-09T23:53:50;1.15;;;1.15;;
71290;SDS011;59073;51.994;4.448;2022-09-09T23:56:18;1.06;;;1.06;;
71290;SDS011;59073;51.994;4.448;2022-09-09T23:58:44;1.24;;;1.24;;
